This is the latest recevied weather packets stored in our database for station/object K9RCP-20. If no packets are shown the sender has not sent any weather packets the latest 10 day(s).
| Time | Temp. | Humidity | Pressure | Rain* | Wind** | Luminosity | Snow |
|---|---|---|---|---|---|---|---|
| 1778107828 | 23.89° C | 54% | 1017 hPa | 0 mm | - | 581 W/m² | - |
| 1778107525 | 22.78° C | 59% | 1017.2 hPa | 0 mm | - | 629 W/m² | - |
| 1778107222 | 21.11° C | 61% | 1017.3 hPa | 0 mm | - | 334 W/m² | - |
| 1778106918 | 21.67° C | 60% | 1017.3 hPa | 0 mm | - | 325 W/m² | - |
| 1778106615 | 21.67° C | 61% | 1017.5 hPa | 0 mm | - | 435 W/m² | - |
| 1778106311 | 21.11° C | 64% | 1017.3 hPa | 0 mm | - | 360 W/m² | - |
| 1778106008 | 21.11° C | 65% | 1017.5 hPa | 0 mm | - | 400 W/m² | - |
| 1778105705 | 22.22° C | 59% | 1017.7 hPa | 0 mm | - | 330 W/m² | - |
| 1778105403 | 22.78° C | 59% | 1017.5 hPa | 0 mm | - | 710 W/m² | - |
| 1778105098 | 22.78° C | 55% | 1017.4 hPa | 0 mm | - | 797 W/m² | - |
| 1778104795 | 22.22° C | 59% | 1017.4 hPa | 0 mm | - | 801 W/m² | - |
| 1778104491 | 22.78° C | 58% | 1017.5 hPa | 0 mm | - | 728 W/m² | - |
| 1778104187 | 22.22° C | 60% | 1017.5 hPa | 0 mm | - | 693 W/m² | - |
| 1778103884 | 21.67° C | 63% | 1017.4 hPa | 0 mm | - | 719 W/m² | - |
| 1778103582 | 20.56° C | 65% | 1017.3 hPa | 0 mm | - | 701 W/m² | - |
| 1778103279 | 21.11° C | 66% | 1017.4 hPa | 0 mm | - | 728 W/m² | - |
| 1778102977 | 20.56° C | 64% | 1017.7 hPa | 0 mm | - | 747 W/m² | - |
| 1778102672 | 21.67° C | 62% | 1017.6 hPa | 0 mm | - | 830 W/m² | - |
| 1778102372 | 20.56° C | 63% | 1017.7 hPa | 0 mm | - | 374 W/m² | - |
| 1778102069 | 20° C | 64% | 1017.9 hPa | 0 mm | - | 427 W/m² | - |
| 1778101766 | 20.56° C | 63% | 1018.1 hPa | 0 mm | - | 305 W/m² | - |
| 1778101463 | 20.56° C | 63% | 1017.9 hPa | 0 mm | - | 320 W/m² | - |
| 1778101160 | 21.11° C | 64% | 1018 hPa | 0 mm | - | 368 W/m² | - |
| 1778100856 | 20.56° C | 64% | 1018 hPa | 0 mm | - | 879 W/m² | - |
| 1778100552 | 20° C | 67% | 1018.1 hPa | 0 mm | - | 845 W/m² | - |
* Rain latest hour (hover to see other rain measurements)
** Current wind speed in m/s (hover to see current wind gust speed)